Terminal Aerodrome Forecast
Issued by NWS

Home | Current Version | Previous Version | Text Only | Print | Product List | Glossary On
Versions: 1 2 3 4 5 6 7 8 9 10 11 12 13 14 15 16 17
000
FTAK31 PANC 212334
TAFACD
TAF
PACD 212334Z 2200/2224 02008KT P6SM SCT025 OVC040
      TEMPO 2200/2202 P6SM -SHRA BKN015 OVC030
     FM220200 35012KT P6SM -SHRA SCT015 OVC025
     FM221500 28015KT P6SM -SHRA SCT020 BKN030
     FM222000 28015KT P6SM BKN040=

USA.gov is the U.S. government's official web portal to all federal, state and local government web resources and services.